Time;durP1;ratioP1;P1;durP2;ratioP2;P2;SDS_P1;SDS_P2;PMS_P1;PMS_P2;Temp;Humidity;BMP_temperature;BMP_pressure;BME280_temperature;BME280_humidity;BME280_pressure;Samples;Min_cycle;Max_cycle;Signal;HPM_P1;HPM_P2
2022/01/14 00:01:30;;;;;;;47.80;14.02;;;;;;;;;;5065407;28;20464;-69
2022/01/14 00:03:56;;;;;;;43.47;14.75;;;;;;;;;;5047286;28;20055;-70
2022/01/14 00:06:21;;;;;;;34.17;12.95;;;;;;;;;;5050416;28;20039;-69
2022/01/14 00:08:46;;;;;;;35.47;12.85;;;;;;;;;;5049546;28;20470;-69
2022/01/14 00:11:17;;;;;;;40.65;12.02;;;;;;;;;;5049551;28;20028;-70
2022/01/14 00:16:08;;;;;;;57.20;14.45;;;;;;;;;;5049360;28;20373;-70
2022/01/14 00:18:33;;;;;;;47.97;11.77;;;;;;;;;;5064065;28;20049;-70
2022/01/14 00:21:02;;;;;;;47.72;10.13;;;;;;;;;;5047001;28;20039;-69
2022/01/14 00:23:31;;;;;;;40.63;9.85;;;;;;;;;;5049358;28;20143;-70
2022/01/14 00:34:13;;;;;;;67.45;14.52;;;;;;;;;;5049274;28;20039;-71
2022/01/14 00:36:39;;;;;;;63.53;16.33;;;;;;;;;;5048573;28;20028;-71
2022/01/14 00:39:05;;;;;;;63.88;13.98;;;;;;;;;;5049061;28;20071;-69
2022/01/14 00:41:30;;;;;;;56.03;14.52;;;;;;;;;;5049118;28;20721;-69
2022/01/14 00:44:01;;;;;;;60.30;13.15;;;;;;;;;;5047570;28;20386;-70
2022/01/14 00:46:29;;;;;;;64.32;14.68;;;;;;;;;;5049116;28;20023;-69
2022/01/14 00:48:56;;;;;;;59.00;14.70;;;;;;;;;;5049550;28;20036;-71
2022/01/14 00:51:21;;;;;;;56.72;14.80;;;;;;;;;;5049138;28;20021;-71
2022/01/14 00:53:47;;;;;;;56.38;16.73;;;;;;;;;;5048759;28;20060;-71
2022/01/14 00:56:30;;;;;;;63.92;17.05;;;;;;;;;;5048169;28;20062;-71
2022/01/14 00:59:16;;;;;;;49.67;14.30;;;;;;;;;;5052257;28;20028;-70
2022/01/14 01:01:46;;;;;;;56.70;15.00;;;;;;;;;;5047497;28;20583;-71
2022/01/14 01:04:12;;;;;;;70.07;13.52;;;;;;;;;;5047693;28;20033;-70
2022/01/14 01:06:38;;;;;;;63.28;13.75;;;;;;;;;;5048703;28;20119;-71
2022/01/14 01:09:25;;;;;;;53.45;10.80;;;;;;;;;;5080648;28;20035;-71
2022/01/14 01:12:04;;;;;;;51.33;12.07;;;;;;;;;;5048761;28;20337;-71
2022/01/14 01:14:39;;;;;;;59.13;10.80;;;;;;;;;;5043279;28;20028;-70
2022/01/14 01:17:04;;;;;;;43.95;9.35;;;;;;;;;;5047617;28;20118;-71
2022/01/14 01:19:30;;;;;;;41.17;9.88;;;;;;;;;;5018608;28;20488;-71
2022/01/14 01:22:11;;;;;;;43.50;10.52;;;;;;;;;;5080722;28;20420;-71
2022/01/14 01:24:37;;;;;;;42.90;10.07;;;;;;;;;;5048288;28;20092;-71
2022/01/14 01:27:06;;;;;;;47.70;10.25;;;;;;;;;;5044399;28;20127;-70
2022/01/14 01:29:47;;;;;;;44.10;10.77;;;;;;;;;;5046258;28;20111;-71
2022/01/14 01:32:13;;;;;;;40.05;10.18;;;;;;;;;;5046640;28;20029;-71
2022/01/14 01:34:41;;;;;;;42.17;10.30;;;;;;;;;;5034678;28;20408;-70
2022/01/14 01:37:06;;;;;;;55.40;11.10;;;;;;;;;;5052238;28;20122;-70
2022/01/14 01:39:34;;;;;;;48.35;10.30;;;;;;;;;;5047925;28;20124;-71
2022/01/14 01:42:01;;;;;;;50.53;10.00;;;;;;;;;;5047576;28;20353;-71
2022/01/14 01:44:29;;;;;;;54.92;10.13;;;;;;;;;;5047255;28;20043;-71
2022/01/14 01:46:59;;;;;;;45.63;11.18;;;;;;;;;;5048595;28;20096;-71
2022/01/14 01:49:27;;;;;;;46.20;10.52;;;;;;;;;;5046702;28;20542;-71
2022/01/14 01:51:53;;;;;;;64.97;12.52;;;;;;;;;;5047455;28;20476;-71
2022/01/14 01:54:19;;;;;;;49.22;10.77;;;;;;;;;;5047248;28;20060;-71
2022/01/14 01:56:44;;;;;;;43.60;10.70;;;;;;;;;;5047416;28;20036;-73
2022/01/14 01:59:10;;;;;;;66.30;10.95;;;;;;;;;;5048192;28;20028;-71
2022/01/14 02:01:39;;;;;;;60.20;12.05;;;;;;;;;;5048388;28;20115;-72
2022/01/14 02:04:04;;;;;;;55.00;11.90;;;;;;;;;;5046716;28;20518;-73
2022/01/14 02:06:30;;;;;;;52.22;12.23;;;;;;;;;;5079793;28;20028;-73
2022/01/14 02:08:56;;;;;;;51.15;11.80;;;;;;;;;;5046674;28;20031;-73
2022/01/14 02:11:22;;;;;;;52.83;10.82;;;;;;;;;;5047310;28;20036;-71
2022/01/14 02:13:53;;;;;;;59.35;11.57;;;;;;;;;;5046910;28;20082;-71
2022/01/14 02:24:43;;;;;;;59.15;13.40;;;;;;;;;;5078929;28;20056;-71
2022/01/14 02:27:12;;;;;;;48.35;12.57;;;;;;;;;;5047048;28;20036;-71
2022/01/14 02:29:39;;;;;;;62.75;12.57;;;;;;;;;;5047391;28;20039;-71
2022/01/14 02:32:05;;;;;;;50.67;12.63;;;;;;;;;;5079352;28;20806;-72
2022/01/14 02:34:30;;;;;;;55.60;11.88;;;;;;;;;;5045150;28;20029;-70
2022/01/14 02:36:56;;;;;;;43.45;12.07;;;;;;;;;;5050742;28;20159;-71
2022/01/14 02:39:22;;;;;;;47.85;12.07;;;;;;;;;;5046936;28;20120;-71
2022/01/14 02:41:49;;;;;;;63.45;12.13;;;;;;;;;;5046963;28;20110;-70
2022/01/14 02:44:22;;;;;;;61.45;11.95;;;;;;;;;;5079256;28;20478;-70
2022/01/14 02:46:56;;;;;;;56.38;12.88;;;;;;;;;;5047205;28;20229;-70
2022/01/14 02:49:26;;;;;;;63.42;13.27;;;;;;;;;;5047609;28;20127;-71
2022/01/14 02:51:51;;;;;;;48.88;11.85;;;;;;;;;;5045818;28;20039;-71
2022/01/14 02:54:21;;;;;;;48.75;12.35;;;;;;;;;;5046477;28;20032;-70
2022/01/14 02:56:48;;;;;;;69.55;13.38;;;;;;;;;;5045328;28;20032;-71
2022/01/14 02:59:15;;;;;;;68.00;13.70;;;;;;;;;;5046554;28;20099;-71
2022/01/14 03:01:41;;;;;;;65.00;15.48;;;;;;;;;;5046908;28;22216;-69
2022/01/14 03:04:07;;;;;;;53.38;12.32;;;;;;;;;;5046282;28;20085;-71
2022/01/14 03:06:35;;;;;;;70.75;13.55;;;;;;;;;;5046540;28;20040;-71
2022/01/14 03:09:03;;;;;;;53.92;13.23;;;;;;;;;;5040756;28;20024;-72
2022/01/14 03:11:30;;;;;;;56.38;12.60;;;;;;;;;;5046745;28;20315;-70
2022/01/14 03:13:59;;;;;;;53.65;14.82;;;;;;;;;;5046002;28;20029;-69
2022/01/14 03:16:24;;;;;;;62.03;14.98;;;;;;;;;;5045437;28;20086;-71
2022/01/14 03:18:53;;;;;;;70.38;16.75;;;;;;;;;;5063151;28;20412;-72
2022/01/14 03:21:29;;;;;;;54.50;15.55;;;;;;;;;;5049810;28;20038;-71
2022/01/14 03:26:39;;;;;;;78.78;24.80;;;;;;;;;;5050344;28;20463;-71
2022/01/14 03:29:04;;;;;;;81.78;29.23;;;;;;;;;;5050264;28;20028;-71
2022/01/14 03:31:30;;;;;;;76.18;30.45;;;;;;;;;;5050172;28;20021;-71
2022/01/14 03:33:56;;;;;;;104.45;33.88;;;;;;;;;;5081929;28;20115;-71
2022/01/14 03:36:21;;;;;;;78.28;28.15;;;;;;;;;;5047778;28;20365;-71
2022/01/14 03:38:47;;;;;;;102.00;29.13;;;;;;;;;;5049012;28;20051;-71
2022/01/14 03:41:12;;;;;;;84.90;30.88;;;;;;;;;;5049389;28;20448;-72
2022/01/14 03:43:38;;;;;;;94.28;33.22;;;;;;;;;;5049693;28;20032;-71
2022/01/14 03:46:04;;;;;;;94.95;33.72;;;;;;;;;;5048907;28;20021;-71
2022/01/14 03:48:29;;;;;;;95.50;32.85;;;;;;;;;;5049702;28;20052;-71
2022/01/14 03:50:55;;;;;;;81.47;32.50;;;;;;;;;;5027655;28;20037;-71
2022/01/14 03:53:21;;;;;;;90.72;34.08;;;;;;;;;;5064360;28;21886;-71
2022/01/14 03:55:47;;;;;;;82.78;31.25;;;;;;;;;;5066354;28;20029;-71
2022/01/14 03:58:12;;;;;;;79.25;30.85;;;;;;;;;;5049878;28;20039;-71
2022/01/14 04:00:37;;;;;;;78.38;29.33;;;;;;;;;;5047888;28;20089;-71
2022/01/14 04:03:07;;;;;;;73.43;28.10;;;;;;;;;;5081621;28;20036;-71
2022/01/14 04:05:32;;;;;;;71.68;30.05;;;;;;;;;;5049027;28;20032;-71
2022/01/14 04:07:58;;;;;;;71.63;29.52;;;;;;;;;;5043412;28;21863;-73
2022/01/14 04:10:25;;;;;;;90.93;30.67;;;;;;;;;;5049785;28;20119;-73
2022/01/14 04:13:01;;;;;;;78.47;29.45;;;;;;;;;;5049661;28;20040;-72
2022/01/14 04:15:37;;;;;;;76.05;28.27;;;;;;;;;;5061460;28;20132;-72
2022/01/14 04:18:07;;;;;;;83.47;27.88;;;;;;;;;;5049635;28;20159;-72
2022/01/14 04:20:33;;;;;;;79.63;26.40;;;;;;;;;;5049264;28;20025;-72
2022/01/14 04:22:59;;;;;;;73.65;28.02;;;;;;;;;;5047871;28;20020;-72
2022/01/14 04:25:24;;;;;;;81.75;27.42;;;;;;;;;;5033799;28;20179;-72
2022/01/14 04:27:50;;;;;;;66.82;25.23;;;;;;;;;;5049535;28;20128;-72
2022/01/14 04:30:16;;;;;;;76.65;26.70;;;;;;;;;;5050442;28;20543;-72
2022/01/14 04:32:41;;;;;;;74.20;25.60;;;;;;;;;;5050181;28;20507;-72
2022/01/14 04:35:07;;;;;;;71.15;25.40;;;;;;;;;;5048398;28;20050;-73
2022/01/14 04:37:32;;;;;;;80.63;25.30;;;;;;;;;;5049352;28;20158;-72
2022/01/14 04:40:00;;;;;;;60.17;24.35;;;;;;;;;;5048344;28;20393;-72
2022/01/14 04:42:28;;;;;;;67.40;24.83;;;;;;;;;;5049834;28;20102;-72
2022/01/14 04:44:55;;;;;;;64.13;24.90;;;;;;;;;;5047232;28;20081;-72
2022/01/14 04:47:57;;;;;;;73.13;25.55;;;;;;;;;;5047897;28;20132;-72
2022/01/14 04:50:17;;;;;;;67.05;24.25;;;;;;;;;;5044360;28;20444;-72
2022/01/14 04:52:45;;;;;;;62.80;23.55;;;;;;;;;;5048688;28;20495;-72
2022/01/14 04:55:11;;;;;;;67.97;25.05;;;;;;;;;;5048092;28;20028;-72
2022/01/14 04:57:39;;;;;;;70.55;24.73;;;;;;;;;;5048223;28;20078;-72
2022/01/14 05:00:06;;;;;;;72.90;26.42;;;;;;;;;;5048549;28;20093;-72
2022/01/14 05:02:32;;;;;;;65.90;25.77;;;;;;;;;;5046652;28;20035;-73
2022/01/14 05:05:01;;;;;;;70.18;23.23;;;;;;;;;;5042493;28;20444;-72
2022/01/14 05:07:27;;;;;;;80.97;26.38;;;;;;;;;;5047930;28;20029;-72
2022/01/14 05:10:47;;;;;;;76.32;25.95;;;;;;;;;;5063078;28;20329;-72
2022/01/14 05:12:42;;;;;;;80.40;26.70;;;;;;;;;;5036602;28;20040;-72
2022/01/14 05:15:08;;;;;;;63.72;25.90;;;;;;;;;;5031763;28;20582;-72
2022/01/14 05:17:33;;;;;;;89.95;29.50;;;;;;;;;;5047732;28;20052;-72
2022/01/14 05:19:59;;;;;;;70.55;25.70;;;;;;;;;;5047433;28;20051;-72
2022/01/14 05:22:27;;;;;;;73.60;28.70;;;;;;;;;;5062642;28;20079;-72
2022/01/14 05:24:53;;;;;;;69.28;28.52;;;;;;;;;;5042447;28;20028;-72
2022/01/14 05:27:19;;;;;;;80.20;28.83;;;;;;;;;;5046080;28;20093;-72
2022/01/14 05:29:44;;;;;;;71.40;28.40;;;;;;;;;;5079494;28;20645;-72
2022/01/14 05:32:13;;;;;;;93.03;30.92;;;;;;;;;;5047552;28;20211;-72
2022/01/14 05:34:41;;;;;;;74.03;28.67;;;;;;;;;;5047819;28;20428;-72
2022/01/14 05:37:07;;;;;;;73.93;29.20;;;;;;;;;;5047675;28;20032;-72
2022/01/14 05:39:33;;;;;;;84.32;31.27;;;;;;;;;;5047323;28;20028;-72
2022/01/14 05:42:00;;;;;;;94.40;30.77;;;;;;;;;;5030232;28;20113;-72
2022/01/14 05:44:26;;;;;;;79.45;28.73;;;;;;;;;;5061210;28;20020;-72
2022/01/14 05:46:52;;;;;;;81.80;30.20;;;;;;;;;;5080479;28;20040;-72
2022/01/14 05:49:20;;;;;;;84.00;30.02;;;;;;;;;;5047224;28;20425;-72
2022/01/14 05:51:48;;;;;;;82.78;29.35;;;;;;;;;;5047469;28;20151;-72
2022/01/14 05:54:14;;;;;;;81.93;30.17;;;;;;;;;;5047512;28;20038;-73
2022/01/14 05:56:40;;;;;;;94.00;28.45;;;;;;;;;;5047423;28;20036;-71
2022/01/14 05:59:06;;;;;;;71.40;27.42;;;;;;;;;;5047550;28;20499;-73
2022/01/14 06:01:31;;;;;;;72.45;26.27;;;;;;;;;;5047024;28;20033;-71
2022/01/14 06:03:57;;;;;;;62.28;26.25;;;;;;;;;;5030304;28;20078;-73
2022/01/14 06:06:23;;;;;;;68.53;26.27;;;;;;;;;;5046900;28;20032;-71
2022/01/14 06:08:49;;;;;;;69.72;25.88;;;;;;;;;;5046991;28;20028;-72
2022/01/14 06:11:14;;;;;;;68.13;24.42;;;;;;;;;;5045095;28;20338;-73
2022/01/14 06:13:40;;;;;;;67.55;24.63;;;;;;;;;;5047373;28;20032;-72
2022/01/14 06:16:08;;;;;;;49.50;21.05;;;;;;;;;;5047696;28;20040;-72
2022/01/14 06:18:34;;;;;;;48.05;22.13;;;;;;;;;;5046545;28;20060;-72
2022/01/14 06:21:00;;;;;;;56.45;20.75;;;;;;;;;;5045988;28;20576;-73
2022/01/14 06:23:25;;;;;;;46.85;19.60;;;;;;;;;;5028234;28;20119;-72
2022/01/14 06:25:53;;;;;;;60.33;21.50;;;;;;;;;;5047226;28;20040;-71
2022/01/14 06:28:21;;;;;;;59.97;18.98;;;;;;;;;;5046884;28;22022;-70
2022/01/14 06:30:47;;;;;;;47.55;16.27;;;;;;;;;;5046789;28;20039;-70
2022/01/14 06:33:13;;;;;;;46.72;17.58;;;;;;;;;;5078099;28;20041;-70
2022/01/14 06:35:38;;;;;;;52.55;16.65;;;;;;;;;;5047049;28;20032;-70
2022/01/14 06:38:04;;;;;;;50.63;17.77;;;;;;;;;;5061320;28;20082;-71
2022/01/14 06:40:30;;;;;;;42.72;15.43;;;;;;;;;;5047231;28;20025;-71
2022/01/14 06:42:56;;;;;;;44.45;16.63;;;;;;;;;;5047064;28;20029;-70
2022/01/14 06:45:22;;;;;;;56.83;18.67;;;;;;;;;;5047023;28;20033;-69
2022/01/14 06:47:47;;;;;;;51.10;17.75;;;;;;;;;;5041450;28;20149;-69
2022/01/14 06:50:14;;;;;;;49.83;18.02;;;;;;;;;;5045984;28;20136;-70
2022/01/14 06:52:39;;;;;;;47.13;17.67;;;;;;;;;;5046778;28;20064;-71
2022/01/14 06:55:05;;;;;;;51.83;18.55;;;;;;;;;;5049912;28;20059;-71
2022/01/14 06:57:31;;;;;;;46.10;18.98;;;;;;;;;;5050557;28;20400;-71
2022/01/14 06:59:57;;;;;;;53.55;18.70;;;;;;;;;;5048798;28;20029;-71
2022/01/14 07:02:22;;;;;;;49.85;18.23;;;;;;;;;;5050567;28;20021;-70
2022/01/14 07:04:47;;;;;;;45.78;18.58;;;;;;;;;;5049973;28;20047;-70
2022/01/14 07:07:15;;;;;;;51.28;18.33;;;;;;;;;;5054607;28;20220;-71
2022/01/14 07:10:02;;;;;;;38.90;16.83;;;;;;;;;;5050090;28;20426;-71
2022/01/14 07:12:40;;;;;;;43.95;18.45;;;;;;;;;;5050435;28;20040;-71
2022/01/14 07:15:08;;;;;;;46.38;18.05;;;;;;;;;;5050065;28;20030;-71
2022/01/14 07:17:34;;;;;;;45.95;19.08;;;;;;;;;;5049957;28;20051;-70
2022/01/14 07:20:05;;;;;;;54.35;19.00;;;;;;;;;;5049852;28;20033;-71
2022/01/14 07:22:31;;;;;;;36.13;18.05;;;;;;;;;;5047993;28;20032;-71
2022/01/14 07:24:58;;;;;;;51.72;19.73;;;;;;;;;;5050157;28;20050;-71
2022/01/14 07:27:23;;;;;;;59.00;21.17;;;;;;;;;;5034452;28;20036;-70
2022/01/14 07:29:48;;;;;;;56.60;20.58;;;;;;;;;;5049875;28;20024;-69
2022/01/14 07:32:14;;;;;;;48.50;19.75;;;;;;;;;;5044643;28;20063;-69
2022/01/14 07:34:39;;;;;;;43.65;19.77;;;;;;;;;;5049632;28;20040;-70
2022/01/14 07:37:05;;;;;;;46.95;18.42;;;;;;;;;;5049809;28;20256;-70
2022/01/14 07:39:33;;;;;;;49.50;20.13;;;;;;;;;;5049715;28;20132;-70
2022/01/14 07:41:59;;;;;;;40.95;19.98;;;;;;;;;;5050282;28;20048;-70
2022/01/14 07:44:24;;;;;;;58.00;18.75;;;;;;;;;;5044260;28;20172;-70
2022/01/14 07:46:52;;;;;;;46.05;17.70;;;;;;;;;;5044514;28;20434;-70
2022/01/14 07:49:17;;;;;;;49.28;18.15;;;;;;;;;;5048817;28;20520;-70
2022/01/14 07:51:42;;;;;;;44.50;18.50;;;;;;;;;;5049522;28;21950;-71
2022/01/14 07:54:08;;;;;;;47.47;19.00;;;;;;;;;;5049131;28;20017;-71
2022/01/14 07:56:38;;;;;;;49.40;19.50;;;;;;;;;;5049938;28;20104;-70
2022/01/14 07:59:05;;;;;;;45.78;18.02;;;;;;;;;;5043727;28;20028;-70
2022/01/14 08:01:33;;;;;;;46.25;19.02;;;;;;;;;;5049277;28;20020;-70
2022/01/14 08:04:04;;;;;;;48.60;20.45;;;;;;;;;;5048994;28;20086;-70
2022/01/14 08:06:32;;;;;;;47.50;18.05;;;;;;;;;;5048904;28;20029;-70
2022/01/14 08:08:57;;;;;;;43.83;17.90;;;;;;;;;;5049247;28;20032;-70
2022/01/14 08:11:22;;;;;;;46.38;18.75;;;;;;;;;;5049537;28;20503;-71
2022/01/14 08:13:50;;;;;;;44.25;17.10;;;;;;;;;;5052981;28;20394;-70
2022/01/14 08:16:15;;;;;;;47.40;16.92;;;;;;;;;;5049086;28;20024;-71
2022/01/14 08:18:41;;;;;;;50.30;18.52;;;;;;;;;;5048146;28;20044;-71
2022/01/14 08:21:07;;;;;;;48.83;17.42;;;;;;;;;;5048698;28;20488;-71
2022/01/14 08:23:32;;;;;;;49.90;16.42;;;;;;;;;;5048737;28;20033;-70
2022/01/14 08:25:57;;;;;;;46.75;17.70;;;;;;;;;;5064649;28;20028;-71
2022/01/14 08:28:29;;;;;;;42.72;16.45;;;;;;;;;;5046831;28;20040;-71
2022/01/14 08:30:57;;;;;;;40.22;17.40;;;;;;;;;;5049404;28;20027;-70
2022/01/14 08:33:25;;;;;;;47.95;17.00;;;;;;;;;;5048277;28;20040;-70
2022/01/14 08:35:50;;;;;;;40.53;14.68;;;;;;;;;;5049027;28;20028;-69
2022/01/14 08:38:18;;;;;;;44.78;16.13;;;;;;;;;;5048454;28;20378;-70
2022/01/14 08:40:44;;;;;;;42.00;14.90;;;;;;;;;;5044863;28;20032;-71
2022/01/14 08:43:10;;;;;;;34.10;14.52;;;;;;;;;;5048113;28;20031;-71
2022/01/14 08:45:36;;;;;;;42.95;15.43;;;;;;;;;;5032297;28;20035;-71
2022/01/14 08:48:02;;;;;;;49.42;14.90;;;;;;;;;;5048104;28;20066;-71
2022/01/14 08:50:31;;;;;;;39.88;13.27;;;;;;;;;;5048036;28;20032;-70
2022/01/14 08:52:58;;;;;;;44.65;13.20;;;;;;;;;;5052729;28;20107;-70
2022/01/14 08:55:23;;;;;;;37.17;13.60;;;;;;;;;;5048575;28;20106;-70
2022/01/14 08:57:51;;;;;;;33.92;13.65;;;;;;;;;;5048418;28;20358;-71
2022/01/14 09:00:18;;;;;;;41.22;12.85;;;;;;;;;;5047890;28;20648;-71
2022/01/14 09:02:45;;;;;;;41.65;12.40;;;;;;;;;;5079860;28;20040;-71
2022/01/14 09:05:11;;;;;;;37.65;13.30;;;;;;;;;;5047357;28;20432;-71
2022/01/14 09:07:37;;;;;;;39.38;13.05;;;;;;;;;;5048527;28;20174;-71
2022/01/14 09:10:03;;;;;;;33.78;12.75;;;;;;;;;;5048261;28;20025;-71
2022/01/14 09:12:29;;;;;;;37.35;12.18;;;;;;;;;;5063702;28;20126;-71
2022/01/14 09:14:55;;;;;;;33.13;12.52;;;;;;;;;;5047452;28;20514;-70
2022/01/14 09:17:21;;;;;;;39.28;12.93;;;;;;;;;;5046965;28;20049;-69
2022/01/14 09:19:46;;;;;;;34.45;10.75;;;;;;;;;;5030604;28;20033;-70
2022/01/14 09:22:17;;;;;;;30.63;11.68;;;;;;;;;;5047796;28;20043;-70
2022/01/14 09:24:44;;;;;;;30.15;11.10;;;;;;;;;;5048123;28;20057;-70
2022/01/14 09:27:11;;;;;;;32.78;11.75;;;;;;;;;;5047475;28;20496;-70
2022/01/14 09:29:37;;;;;;;31.98;11.93;;;;;;;;;;5047095;28;20412;-70
2022/01/14 09:32:03;;;;;;;43.45;11.00;;;;;;;;;;5047748;28;20025;-69
2022/01/14 09:34:28;;;;;;;39.45;11.02;;;;;;;;;;5047255;28;20032;-70
2022/01/14 09:36:54;;;;;;;39.72;11.68;;;;;;;;;;5047558;28;20033;-70
2022/01/14 09:39:20;;;;;;;28.23;10.07;;;;;;;;;;5045784;28;20341;-70
2022/01/14 09:41:48;;;;;;;25.63;8.93;;;;;;;;;;5079680;28;20043;-70
2022/01/14 09:44:14;;;;;;;29.00;10.73;;;;;;;;;;5048210;28;20432;-69
2022/01/14 09:46:39;;;;;;;28.05;10.15;;;;;;;;;;5047281;28;20027;-70
2022/01/14 09:49:13;;;;;;;27.95;9.85;;;;;;;;;;5046856;28;20440;-69
2022/01/14 09:51:38;;;;;;;29.05;9.57;;;;;;;;;;5047781;28;20029;-70
2022/01/14 09:54:06;;;;;;;26.33;9.48;;;;;;;;;;5043058;28;20039;-72
2022/01/14 09:56:32;;;;;;;24.50;9.18;;;;;;;;;;5047039;28;20020;-70
2022/01/14 09:58:57;;;;;;;31.77;9.30;;;;;;;;;;5046457;28;20267;-70
2022/01/14 10:01:26;;;;;;;24.38;8.75;;;;;;;;;;5047070;28;20032;-70
2022/01/14 10:03:59;;;;;;;23.63;8.05;;;;;;;;;;5050811;28;20025;-70
2022/01/14 10:06:44;;;;;;;26.73;8.38;;;;;;;;;;5047486;28;20342;-70
2022/01/14 10:09:17;;;;;;;23.75;7.75;;;;;;;;;;5046818;28;20676;-70
2022/01/14 10:11:48;;;;;;;27.73;8.13;;;;;;;;;;5047314;28;20190;-69
2022/01/14 10:14:16;;;;;;;28.90;7.85;;;;;;;;;;5047148;28;20025;-70
2022/01/14 10:16:43;;;;;;;22.80;7.63;;;;;;;;;;5046873;28;20020;-70
2022/01/14 10:19:28;;;;;;;25.48;8.20;;;;;;;;;;5045039;28;20040;-70
2022/01/14 10:21:54;;;;;;;19.85;8.10;;;;;;;;;;5046395;28;20029;-70
2022/01/14 10:24:22;;;;;;;19.52;7.75;;;;;;;;;;5046885;28;20045;-70
2022/01/14 10:26:58;;;;;;;19.85;7.22;;;;;;;;;;5043329;28;20017;-70
2022/01/14 10:29:32;;;;;;;22.00;7.72;;;;;;;;;;5074314;28;20362;-72
2022/01/14 10:32:00;;;;;;;28.70;8.55;;;;;;;;;;5046212;28;20091;-70
2022/01/14 10:34:26;;;;;;;33.40;8.77;;;;;;;;;;5046826;28;20052;-70
2022/01/14 10:37:07;;;;;;;39.55;8.35;;;;;;;;;;5046421;28;20468;-70
2022/01/14 10:39:33;;;;;;;25.83;7.63;;;;;;;;;;5046936;28;20032;-70
2022/01/14 10:41:58;;;;;;;27.83;7.40;;;;;;;;;;5046584;28;20519;-70
2022/01/14 10:44:30;;;;;;;41.97;8.85;;;;;;;;;;5046833;28;20731;-70
2022/01/14 10:47:15;;;;;;;26.60;7.18;;;;;;;;;;5046656;28;20044;-70
2022/01/14 10:49:46;;;;;;;20.88;6.93;;;;;;;;;;5045975;28;20075;-70
2022/01/14 10:52:22;;;;;;;24.40;6.97;;;;;;;;;;5045830;28;20020;-69
2022/01/14 10:54:50;;;;;;;38.58;7.47;;;;;;;;;;5046633;28;20101;-70
2022/01/14 10:57:19;;;;;;;29.80;7.63;;;;;;;;;;5046585;28;20025;-71
2022/01/14 10:59:46;;;;;;;42.20;7.50;;;;;;;;;;5046794;28;20130;-74
2022/01/14 11:02:30;;;;;;;23.55;7.40;;;;;;;;;;5046630;28;20021;-70
2022/01/14 11:05:08;;;;;;;21.20;6.80;;;;;;;;;;5046095;28;20025;-69
2022/01/14 11:07:35;;;;;;;23.35;6.40;;;;;;;;;;5078455;28;20028;-69
2022/01/14 11:10:02;;;;;;;23.92;6.60;;;;;;;;;;5046275;28;20536;-70
2022/01/14 11:12:29;;;;;;;20.25;6.50;;;;;;;;;;5045759;28;20032;-70
2022/01/14 11:14:56;;;;;;;29.70;8.00;;;;;;;;;;5041158;28;20318;-71
2022/01/14 11:17:22;;;;;;;21.40;7.50;;;;;;;;;;5046161;28;20115;-70
2022/01/14 11:19:48;;;;;;;20.95;7.05;;;;;;;;;;5046076;28;20033;-70
2022/01/14 11:24:57;;;;;;;19.05;4.88;;;;;;;;;;5045919;28;20130;-70
2022/01/14 11:27:23;;;;;;;19.13;4.88;;;;;;;;;;5046609;28;20032;-69
2022/01/14 11:29:49;;;;;;;23.60;6.28;;;;;;;;;;5046273;28;20040;-70
2022/01/14 11:32:17;;;;;;;23.67;5.50;;;;;;;;;;5046403;28;20033;-70
2022/01/14 11:34:45;;;;;;;20.50;4.60;;;;;;;;;;5046695;28;20043;-69
2022/01/14 11:37:29;;;;;;;16.67;4.40;;;;;;;;;;5046284;28;20115;-72
2022/01/14 11:39:57;;;;;;;19.10;4.43;;;;;;;;;;5061911;28;20031;-70
2022/01/14 11:42:43;;;;;;;14.82;3.95;;;;;;;;;;5049208;28;20021;-69
2022/01/14 11:45:19;;;;;;;19.35;5.30;;;;;;;;;;5049571;28;20033;-69
2022/01/14 11:47:47;;;;;;;13.50;3.50;;;;;;;;;;5053630;28;20051;-71
2022/01/14 11:50:19;;;;;;;16.23;3.70;;;;;;;;;;5049222;28;20097;-70
2022/01/14 11:52:45;;;;;;;18.48;3.83;;;;;;;;;;5048975;28;20036;-69
2022/01/14 11:55:19;;;;;;;15.32;3.72;;;;;;;;;;5049871;28;20597;-70
2022/01/14 11:57:49;;;;;;;13.68;3.05;;;;;;;;;;5049561;28;20025;-69
2022/01/14 12:00:26;;;;;;;14.68;3.85;;;;;;;;;;5048287;28;20364;-69
2022/01/14 12:02:52;;;;;;;10.25;3.10;;;;;;;;;;5049420;28;20022;-70
2022/01/14 12:05:21;;;;;;;13.55;2.90;;;;;;;;;;5048981;28;20032;-69
2022/01/14 12:08:07;;;;;;;12.70;3.20;;;;;;;;;;5047989;28;20036;-69
2022/01/14 12:10:44;;;;;;;14.73;3.17;;;;;;;;;;5049421;28;20476;-70
2022/01/14 12:13:16;;;;;;;16.48;3.05;;;;;;;;;;5049472;28;20060;-70
2022/01/14 12:15:56;;;;;;;10.93;2.92;;;;;;;;;;5049799;28;20495;-70
2022/01/14 12:18:40;;;;;;;9.13;2.47;;;;;;;;;;5048936;28;20041;-68
2022/01/14 12:21:06;;;;;;;17.17;3.15;;;;;;;;;;5048798;28;20029;-68
2022/01/14 12:23:32;;;;;;;17.20;3.33;;;;;;;;;;5048635;28;20105;-68
2022/01/14 12:26:11;;;;;;;15.35;3.38;;;;;;;;;;5049021;28;20559;-69
2022/01/14 12:28:37;;;;;;;17.13;3.47;;;;;;;;;;5049255;28;20024;-67
2022/01/14 12:31:03;;;;;;;14.20;3.58;;;;;;;;;;5049273;28;20041;-67
2022/01/14 12:33:55;;;;;;;8.30;2.47;;;;;;;;;;5080853;28;20033;-67
2022/01/14 12:36:22;;;;;;;11.38;2.63;;;;;;;;;;5046181;28;20047;-68
2022/01/14 12:38:48;;;;;;;10.40;2.70;;;;;;;;;;5048752;28;20043;-68
2022/01/14 12:41:23;;;;;;;11.70;2.60;;;;;;;;;;5048407;28;20028;-68
2022/01/14 12:43:53;;;;;;;11.75;2.47;;;;;;;;;;5081637;28;20733;-68
2022/01/14 12:49:06;;;;;;;20.38;4.05;;;;;;;;;;5047772;28;20125;-68
2022/01/14 12:51:32;;;;;;;20.65;2.80;;;;;;;;;;5048271;28;20120;-69
2022/01/14 12:53:59;;;;;;;11.77;2.25;;;;;;;;;;5035877;28;20445;-68
2022/01/14 12:56:26;;;;;;;11.57;2.72;;;;;;;;;;5080221;28;20067;-68
2022/01/14 12:58:59;;;;;;;8.52;2.35;;;;;;;;;;5048514;28;20515;-68
2022/01/14 13:01:29;;;;;;;9.68;2.63;;;;;;;;;;5048163;28;20401;-67
2022/01/14 13:03:58;;;;;;;10.88;2.55;;;;;;;;;;5047832;28;20063;-68
2022/01/14 13:06:24;;;;;;;16.15;3.63;;;;;;;;;;5048255;28;20476;-68
2022/01/14 13:08:56;;;;;;;13.00;2.90;;;;;;;;;;5048022;28;20032;-69
2022/01/14 13:11:22;;;;;;;;;;;;;;;;;;5047234;28;20040;-68
2022/01/14 13:14:01;;;;;;;10.70;2.70;;;;;;;;;;5048242;28;20613;-68
2022/01/14 13:16:41;;;;;;;15.70;3.25;;;;;;;;;;5048363;28;20035;-68
2022/01/14 13:19:18;;;;;;;10.95;3.40;;;;;;;;;;5047456;28;20432;-68
2022/01/14 13:21:44;;;;;;;12.90;2.63;;;;;;;;;;5031226;28;20028;-69
2022/01/14 13:24:22;;;;;;;14.55;2.47;;;;;;;;;;5047535;28;20029;-67
2022/01/14 13:27:02;;;;;;;11.00;2.72;;;;;;;;;;5048273;28;20098;-67
2022/01/14 13:29:33;;;;;;;15.77;2.75;;;;;;;;;;5047723;28;20022;-68
2022/01/14 13:32:02;;;;;;;14.20;3.60;;;;;;;;;;5047662;28;21910;-67
2022/01/14 13:34:30;;;;;;;20.50;3.65;;;;;;;;;;5047460;28;20134;-68
2022/01/14 13:36:58;;;;;;;14.32;2.80;;;;;;;;;;5047259;28;20068;-68
2022/01/14 13:39:23;;;;;;;17.80;3.35;;;;;;;;;;5047861;28;20028;-68
2022/01/14 13:41:49;;;;;;;20.48;3.72;;;;;;;;;;5048481;28;20051;-68
2022/01/14 13:44:15;;;;;;;16.02;3.50;;;;;;;;;;5047967;28;20082;-67
2022/01/14 13:46:44;;;;;;;13.45;2.95;;;;;;;;;;5046943;28;20147;-68
2022/01/14 13:49:11;;;;;;;13.40;2.90;;;;;;;;;;5047096;28;20148;-69
2022/01/14 13:51:38;;;;;;;13.15;3.20;;;;;;;;;;5029487;28;20132;-69
2022/01/14 13:54:04;;;;;;;13.32;3.17;;;;;;;;;;5047375;28;20036;-68
2022/01/14 13:56:30;;;;;;;10.90;2.92;;;;;;;;;;5045694;28;20040;-68
2022/01/14 13:58:58;;;;;;;8.77;2.35;;;;;;;;;;5047382;28;20036;-68
2022/01/14 14:01:28;;;;;;;9.02;2.60;;;;;;;;;;5047254;28;20028;-69
2022/01/14 14:04:08;;;;;;;10.60;2.33;;;;;;;;;;5046213;28;20464;-68
2022/01/14 14:06:43;;;;;;;12.75;2.80;;;;;;;;;;5047342;28;20028;-68
2022/01/14 14:12:04;;;;;;;10.00;3.00;;;;;;;;;;5047559;28;20037;-69
2022/01/14 14:17:16;;;;;;;19.83;3.30;;;;;;;;;;5046527;28;20047;-68
2022/01/14 14:19:59;;;;;;;15.15;2.97;;;;;;;;;;5046863;28;20459;-68
2022/01/14 14:22:33;;;;;;;15.38;3.42;;;;;;;;;;5047138;28;20049;-68
2022/01/14 14:25:07;;;;;;;10.82;2.95;;;;;;;;;;5046971;28;20059;-68
2022/01/14 14:27:33;;;;;;;10.43;2.85;;;;;;;;;;5046912;28;20052;-69
2022/01/14 14:30:12;;;;;;;17.08;3.22;;;;;;;;;;5046919;28;20032;-68
2022/01/14 14:32:40;;;;;;;15.55;3.60;;;;;;;;;;5041370;28;21903;-70
2022/01/14 14:35:15;;;;;;;25.00;3.33;;;;;;;;;;5046263;28;20025;-67
2022/01/14 14:37:41;;;;;;;16.50;3.47;;;;;;;;;;5047083;28;20500;-68
2022/01/14 14:40:10;;;;;;;17.95;3.65;;;;;;;;;;5046532;28;20115;-68
2022/01/14 14:42:36;;;;;;;14.88;3.55;;;;;;;;;;5046817;28;20021;-69
2022/01/14 14:45:07;;;;;;;12.05;2.80;;;;;;;;;;5046628;28;20024;-68
2022/01/14 14:47:32;;;;;;;5.75;2.50;;;;;;;;;;5041806;28;20120;-68
2022/01/14 14:49:57;;;;;;;7.20;2.65;;;;;;;;;;5046095;28;20032;-68
2022/01/14 14:52:23;;;;;;;9.52;2.80;;;;;;;;;;5078770;28;20075;-67
2022/01/14 14:54:49;;;;;;;11.05;3.08;;;;;;;;;;5046429;28;20035;-66
2022/01/14 14:57:16;;;;;;;10.10;2.50;;;;;;;;;;5047592;28;20537;-68
2022/01/14 14:59:42;;;;;;;13.57;3.15;;;;;;;;;;5046336;28;20032;-68
2022/01/14 15:02:11;;;;;;;10.70;2.60;;;;;;;;;;5044735;28;20035;-67